sensor_id;sensor_type;location;lat;lon;timestamp;temperature;humidity
69382;DHT22;56560;50.692;12.844;2023-02-24T00:01:09;7.90;90.20
69382;DHT22;56560;50.692;12.844;2023-02-24T00:03:37;7.90;89.80
69382;DHT22;56560;50.692;12.844;2023-02-24T00:06:04;7.80;89.30
69382;DHT22;56560;50.692;12.844;2023-02-24T00:08:40;7.70;90.10
69382;DHT22;56560;50.692;12.844;2023-02-24T00:11:11;7.70;89.80
69382;DHT22;56560;50.692;12.844;2023-02-24T00:13:40;7.60;89.90
69382;DHT22;56560;50.692;12.844;2023-02-24T00:16:11;7.60;90.20
69382;DHT22;56560;50.692;12.844;2023-02-24T00:18:37;7.70;90.30
69382;DHT22;56560;50.692;12.844;2023-02-24T00:21:07;7.70;90.10
69382;DHT22;56560;50.692;12.844;2023-02-24T00:23:37;7.60;89.70
69382;DHT22;56560;50.692;12.844;2023-02-24T00:26:05;7.50;90.10
69382;DHT22;56560;50.692;12.844;2023-02-24T00:28:33;7.60;90.50
69382;DHT22;56560;50.692;12.844;2023-02-24T00:31:06;7.60;90.60
69382;DHT22;56560;50.692;12.844;2023-02-24T00:33:33;7.60;90.20
69382;DHT22;56560;50.692;12.844;2023-02-24T00:36:09;7.60;90.60
69382;DHT22;56560;50.692;12.844;2023-02-24T00:38:37;7.60;90.30
69382;DHT22;56560;50.692;12.844;2023-02-24T00:41:30;7.60;89.90
69382;DHT22;56560;50.692;12.844;2023-02-24T00:44:05;7.60;89.60
69382;DHT22;56560;50.692;12.844;2023-02-24T00:46:35;7.50;89.10
69382;DHT22;56560;50.692;12.844;2023-02-24T00:49:03;7.40;89.40
69382;DHT22;56560;50.692;12.844;2023-02-24T00:51:33;7.40;90.20
69382;DHT22;56560;50.692;12.844;2023-02-24T00:54:00;7.40;89.80
69382;DHT22;56560;50.692;12.844;2023-02-24T00:56:28;7.40;89.90
69382;DHT22;56560;50.692;12.844;2023-02-24T00:58:55;7.30;90.00
69382;DHT22;56560;50.692;12.844;2023-02-24T01:01:23;7.30;90.00
69382;DHT22;56560;50.692;12.844;2023-02-24T01:03:49;7.40;90.10
69382;DHT22;56560;50.692;12.844;2023-02-24T01:06:19;7.40;90.20
69382;DHT22;56560;50.692;12.844;2023-02-24T01:08:47;7.50;89.60
69382;DHT22;56560;50.692;12.844;2023-02-24T01:11:15;7.40;89.10
69382;DHT22;56560;50.692;12.844;2023-02-24T01:13:59;7.40;89.60
69382;DHT22;56560;50.692;12.844;2023-02-24T01:16:25;7.40;89.90
69382;DHT22;56560;50.692;12.844;2023-02-24T01:18:50;7.40;89.40
69382;DHT22;56560;50.692;12.844;2023-02-24T01:21:18;7.40;89.20
69382;DHT22;56560;50.692;12.844;2023-02-24T01:23:49;7.30;89.10
69382;DHT22;56560;50.692;12.844;2023-02-24T01:26:15;7.30;89.40
69382;DHT22;56560;50.692;12.844;2023-02-24T01:28:42;7.20;89.30
69382;DHT22;56560;50.692;12.844;2023-02-24T01:31:07;7.20;89.30
69382;DHT22;56560;50.692;12.844;2023-02-24T01:33:34;7.20;89.40
69382;DHT22;56560;50.692;12.844;2023-02-24T01:36:10;7.20;89.20
69382;DHT22;56560;50.692;12.844;2023-02-24T01:38:37;7.30;89.30
69382;DHT22;56560;50.692;12.844;2023-02-24T01:41:04;7.20;88.90
69382;DHT22;56560;50.692;12.844;2023-02-24T01:43:31;7.20;89.50
69382;DHT22;56560;50.692;12.844;2023-02-24T01:45:57;7.20;89.30
69382;DHT22;56560;50.692;12.844;2023-02-24T01:48:23;7.20;89.20
69382;DHT22;56560;50.692;12.844;2023-02-24T01:50:50;7.20;89.30
69382;DHT22;56560;50.692;12.844;2023-02-24T01:53:16;7.20;89.20
69382;DHT22;56560;50.692;12.844;2023-02-24T01:55:47;7.20;89.20
69382;DHT22;56560;50.692;12.844;2023-02-24T01:58:22;7.10;89.40
69382;DHT22;56560;50.692;12.844;2023-02-24T02:00:50;7.10;89.50
69382;DHT22;56560;50.692;12.844;2023-02-24T02:03:24;7.10;89.20
69382;DHT22;56560;50.692;12.844;2023-02-24T02:05:53;7.10;89.30
69382;DHT22;56560;50.692;12.844;2023-02-24T02:08:21;7.00;89.40
69382;DHT22;56560;50.692;12.844;2023-02-24T02:10:49;7.10;89.50
69382;DHT22;56560;50.692;12.844;2023-02-24T02:13:18;7.10;89.60
69382;DHT22;56560;50.692;12.844;2023-02-24T02:24:20;7.20;89.40
69382;DHT22;56560;50.692;12.844;2023-02-24T02:38:51;7.20;89.40
69382;DHT22;56560;50.692;12.844;2023-02-24T02:43:54;7.10;89.50
69382;DHT22;56560;50.692;12.844;2023-02-24T02:46:40;7.20;89.00
69382;DHT22;56560;50.692;12.844;2023-02-24T02:49:29;7.20;88.90
69382;DHT22;56560;50.692;12.844;2023-02-24T02:52:11;7.10;88.70
69382;DHT22;56560;50.692;12.844;2023-02-24T02:54:42;7.10;89.20
69382;DHT22;56560;50.692;12.844;2023-02-24T02:57:35;7.10;88.90
69382;DHT22;56560;50.692;12.844;2023-02-24T03:00:22;7.10;89.00
69382;DHT22;56560;50.692;12.844;2023-02-24T03:02:58;7.10;89.20
69382;DHT22;56560;50.692;12.844;2023-02-24T03:05:35;7.10;89.10
69382;DHT22;56560;50.692;12.844;2023-02-24T03:08:04;7.00;89.00
69382;DHT22;56560;50.692;12.844;2023-02-24T03:10:36;7.00;89.10
69382;DHT22;56560;50.692;12.844;2023-02-24T03:13:04;7.00;89.20
69382;DHT22;56560;50.692;12.844;2023-02-24T03:15:32;7.00;89.70
69382;DHT22;56560;50.692;12.844;2023-02-24T03:18:08;7.00;89.10
69382;DHT22;56560;50.692;12.844;2023-02-24T03:20:44;7.00;88.70
69382;DHT22;56560;50.692;12.844;2023-02-24T03:23:18;7.00;88.60
69382;DHT22;56560;50.692;12.844;2023-02-24T03:26:07;6.80;88.90
69382;DHT22;56560;50.692;12.844;2023-02-24T03:28:41;6.80;89.40
69382;DHT22;56560;50.692;12.844;2023-02-24T03:36:31;6.70;90.00
69382;DHT22;56560;50.692;12.844;2023-02-24T03:38:58;6.70;90.00
69382;DHT22;56560;50.692;12.844;2023-02-24T03:41:34;6.70;89.60
69382;DHT22;56560;50.692;12.844;2023-02-24T03:44:04;6.70;89.70
69382;DHT22;56560;50.692;12.844;2023-02-24T03:46:32;6.60;88.50
69382;DHT22;56560;50.692;12.844;2023-02-24T03:49:04;6.60;88.80
69382;DHT22;56560;50.692;12.844;2023-02-24T03:51:37;6.60;89.10
69382;DHT22;56560;50.692;12.844;2023-02-24T03:59:34;6.60;88.80
69382;DHT22;56560;50.692;12.844;2023-02-24T04:04:40;6.50;88.50
69382;DHT22;56560;50.692;12.844;2023-02-24T04:07:14;6.40;88.70
69382;DHT22;56560;50.692;12.844;2023-02-24T04:14:49;6.40;88.80
69382;DHT22;56560;50.692;12.844;2023-02-24T04:17:23;6.40;89.10
69382;DHT22;56560;50.692;12.844;2023-02-24T04:19:54;6.40;89.00
69382;DHT22;56560;50.692;12.844;2023-02-24T04:22:23;6.50;88.00
69382;DHT22;56560;50.692;12.844;2023-02-24T04:24:52;6.40;87.80
69382;DHT22;56560;50.692;12.844;2023-02-24T04:27:20;6.30;87.70
69382;DHT22;56560;50.692;12.844;2023-02-24T04:29:53;6.20;88.10
69382;DHT22;56560;50.692;12.844;2023-02-24T04:32:25;6.20;88.20
69382;DHT22;56560;50.692;12.844;2023-02-24T04:34:52;6.20;88.30
69382;DHT22;56560;50.692;12.844;2023-02-24T04:37:19;6.20;88.70
69382;DHT22;56560;50.692;12.844;2023-02-24T04:39:48;6.20;88.50
69382;DHT22;56560;50.692;12.844;2023-02-24T04:42:15;6.20;88.50
69382;DHT22;56560;50.692;12.844;2023-02-24T04:44:41;6.20;88.50
69382;DHT22;56560;50.692;12.844;2023-02-24T04:47:09;6.20;88.60
69382;DHT22;56560;50.692;12.844;2023-02-24T04:49:36;6.10;88.40
69382;DHT22;56560;50.692;12.844;2023-02-24T04:52:06;6.00;88.90
69382;DHT22;56560;50.692;12.844;2023-02-24T04:54:33;6.00;88.70
69382;DHT22;56560;50.692;12.844;2023-02-24T04:56:59;6.00;89.50
69382;DHT22;56560;50.692;12.844;2023-02-24T04:59:26;6.00;89.20
69382;DHT22;56560;50.692;12.844;2023-02-24T05:01:52;6.00;89.40
69382;DHT22;56560;50.692;12.844;2023-02-24T05:04:18;6.00;89.50
69382;DHT22;56560;50.692;12.844;2023-02-24T05:06:43;6.00;89.00
69382;DHT22;56560;50.692;12.844;2023-02-24T05:09:15;6.00;88.30
69382;DHT22;56560;50.692;12.844;2023-02-24T05:11:43;6.00;88.30
69382;DHT22;56560;50.692;12.844;2023-02-24T05:14:13;6.00;87.80
69382;DHT22;56560;50.692;12.844;2023-02-24T05:16:43;6.00;87.70
69382;DHT22;56560;50.692;12.844;2023-02-24T05:19:10;6.10;88.10
69382;DHT22;56560;50.692;12.844;2023-02-24T05:21:55;6.20;88.40
69382;DHT22;56560;50.692;12.844;2023-02-24T05:24:24;6.10;87.10
69382;DHT22;56560;50.692;12.844;2023-02-24T05:26:52;6.10;86.90
69382;DHT22;56560;50.692;12.844;2023-02-24T05:29:27;6.10;86.90
69382;DHT22;56560;50.692;12.844;2023-02-24T05:31:54;6.20;87.20
69382;DHT22;56560;50.692;12.844;2023-02-24T05:34:24;6.20;86.60
69382;DHT22;56560;50.692;12.844;2023-02-24T05:36:50;6.10;86.60
69382;DHT22;56560;50.692;12.844;2023-02-24T05:39:18;6.10;86.50
69382;DHT22;56560;50.692;12.844;2023-02-24T05:41:45;6.10;86.40
69382;DHT22;56560;50.692;12.844;2023-02-24T05:44:15;6.00;87.00
69382;DHT22;56560;50.692;12.844;2023-02-24T05:46:44;6.00;86.70
69382;DHT22;56560;50.692;12.844;2023-02-24T05:49:17;5.90;87.60
69382;DHT22;56560;50.692;12.844;2023-02-24T05:51:45;5.90;87.20
69382;DHT22;56560;50.692;12.844;2023-02-24T05:54:20;5.80;88.30
69382;DHT22;56560;50.692;12.844;2023-02-24T05:56:50;5.80;88.20
69382;DHT22;56560;50.692;12.844;2023-02-24T05:59:16;5.80;87.70
69382;DHT22;56560;50.692;12.844;2023-02-24T06:01:46;5.80;88.30
69382;DHT22;56560;50.692;12.844;2023-02-24T06:04:14;5.90;88.40
69382;DHT22;56560;50.692;12.844;2023-02-24T06:07:13;5.90;88.10
69382;DHT22;56560;50.692;12.844;2023-02-24T06:09:44;5.90;88.30
69382;DHT22;56560;50.692;12.844;2023-02-24T06:12:11;5.90;87.90
69382;DHT22;56560;50.692;12.844;2023-02-24T06:14:40;5.90;87.50
69382;DHT22;56560;50.692;12.844;2023-02-24T06:17:06;5.80;88.20
69382;DHT22;56560;50.692;12.844;2023-02-24T06:19:32;5.80;88.60
69382;DHT22;56560;50.692;12.844;2023-02-24T06:21:59;5.70;88.10
69382;DHT22;56560;50.692;12.844;2023-02-24T06:24:31;5.70;88.40
69382;DHT22;56560;50.692;12.844;2023-02-24T06:26:58;5.70;89.00
69382;DHT22;56560;50.692;12.844;2023-02-24T06:29:29;5.70;88.50
69382;DHT22;56560;50.692;12.844;2023-02-24T06:31:55;5.70;88.60
69382;DHT22;56560;50.692;12.844;2023-02-24T06:34:24;5.80;88.40
69382;DHT22;56560;50.692;12.844;2023-02-24T06:36:51;5.70;88.50
69382;DHT22;56560;50.692;12.844;2023-02-24T06:39:17;5.70;88.80
69382;DHT22;56560;50.692;12.844;2023-02-24T06:41:43;5.80;89.20
69382;DHT22;56560;50.692;12.844;2023-02-24T06:44:09;5.80;88.90
69382;DHT22;56560;50.692;12.844;2023-02-24T06:46:35;5.80;89.00
69382;DHT22;56560;50.692;12.844;2023-02-24T06:49:01;5.90;88.90
69382;DHT22;56560;50.692;12.844;2023-02-24T06:51:27;5.90;88.90
69382;DHT22;56560;50.692;12.844;2023-02-24T06:53:57;6.00;88.70
69382;DHT22;56560;50.692;12.844;2023-02-24T06:56:25;6.00;89.10
69382;DHT22;56560;50.692;12.844;2023-02-24T06:58:52;6.10;88.50
69382;DHT22;56560;50.692;12.844;2023-02-24T07:01:25;6.20;87.90
69382;DHT22;56560;50.692;12.844;2023-02-24T07:03:56;6.20;87.20
69382;DHT22;56560;50.692;12.844;2023-02-24T07:06:40;6.20;88.20
69382;DHT22;56560;50.692;12.844;2023-02-24T07:09:08;6.30;87.50
69382;DHT22;56560;50.692;12.844;2023-02-24T07:11:38;6.30;87.40
69382;DHT22;56560;50.692;12.844;2023-02-24T07:14:08;6.40;87.50
69382;DHT22;56560;50.692;12.844;2023-02-24T07:16:35;6.40;87.30
69382;DHT22;56560;50.692;12.844;2023-02-24T07:19:05;6.40;87.50
69382;DHT22;56560;50.692;12.844;2023-02-24T07:21:36;6.40;87.50
69382;DHT22;56560;50.692;12.844;2023-02-24T07:24:11;6.50;87.10
69382;DHT22;56560;50.692;12.844;2023-02-24T07:26:39;6.60;86.90
69382;DHT22;56560;50.692;12.844;2023-02-24T07:29:12;6.80;86.10
69382;DHT22;56560;50.692;12.844;2023-02-24T07:31:38;6.90;85.70
69382;DHT22;56560;50.692;12.844;2023-02-24T07:34:04;6.90;84.80
69382;DHT22;56560;50.692;12.844;2023-02-24T07:36:31;6.90;84.40
69382;DHT22;56560;50.692;12.844;2023-02-24T07:39:04;6.90;84.50
69382;DHT22;56560;50.692;12.844;2023-02-24T07:41:32;6.90;83.90
69382;DHT22;56560;50.692;12.844;2023-02-24T07:43:58;6.80;84.40
69382;DHT22;56560;50.692;12.844;2023-02-24T07:46:28;6.80;84.70
69382;DHT22;56560;50.692;12.844;2023-02-24T07:48:55;6.80;83.80
69382;DHT22;56560;50.692;12.844;2023-02-24T07:51:25;6.80;84.30
69382;DHT22;56560;50.692;12.844;2023-02-24T07:53:55;6.70;84.70
69382;DHT22;56560;50.692;12.844;2023-02-24T07:56:22;6.70;85.40
69382;DHT22;56560;50.692;12.844;2023-02-24T07:59:02;6.70;84.60
69382;DHT22;56560;50.692;12.844;2023-02-24T08:01:30;6.70;84.40
69382;DHT22;56560;50.692;12.844;2023-02-24T08:04:04;6.70;84.50
69382;DHT22;56560;50.692;12.844;2023-02-24T08:06:34;6.50;85.30
69382;DHT22;56560;50.692;12.844;2023-02-24T08:09:08;6.40;86.40
69382;DHT22;56560;50.692;12.844;2023-02-24T08:11:51;6.40;85.40
69382;DHT22;56560;50.692;12.844;2023-02-24T08:16:50;6.20;84.80
69382;DHT22;56560;50.692;12.844;2023-02-24T08:19:18;6.00;84.80
69382;DHT22;56560;50.692;12.844;2023-02-24T08:21:52;5.90;85.30
69382;DHT22;56560;50.692;12.844;2023-02-24T08:24:20;6.00;85.90
69382;DHT22;56560;50.692;12.844;2023-02-24T08:26:50;6.20;85.80
69382;DHT22;56560;50.692;12.844;2023-02-24T08:29:34;6.40;84.90
69382;DHT22;56560;50.692;12.844;2023-02-24T08:32:08;6.50;84.50
69382;DHT22;56560;50.692;12.844;2023-02-24T08:34:35;6.60;84.10
69382;DHT22;56560;50.692;12.844;2023-02-24T08:37:01;6.70;83.90
69382;DHT22;56560;50.692;12.844;2023-02-24T08:39:27;6.90;83.10
69382;DHT22;56560;50.692;12.844;2023-02-24T08:41:56;6.90;82.30
69382;DHT22;56560;50.692;12.844;2023-02-24T08:44:22;7.00;81.70
69382;DHT22;56560;50.692;12.844;2023-02-24T08:46:48;6.90;82.40
69382;DHT22;56560;50.692;12.844;2023-02-24T08:49:16;6.80;81.80
69382;DHT22;56560;50.692;12.844;2023-02-24T08:51:46;6.70;82.80
69382;DHT22;56560;50.692;12.844;2023-02-24T08:54:16;6.60;84.20
69382;DHT22;56560;50.692;12.844;2023-02-24T08:56:47;6.30;84.90
69382;DHT22;56560;50.692;12.844;2023-02-24T08:59:21;6.10;84.10
69382;DHT22;56560;50.692;12.844;2023-02-24T09:01:57;5.80;85.10
69382;DHT22;56560;50.692;12.844;2023-02-24T09:05:01;5.70;86.60
69382;DHT22;56560;50.692;12.844;2023-02-24T09:07:29;5.70;85.10
69382;DHT22;56560;50.692;12.844;2023-02-24T09:10:21;5.60;85.30
69382;DHT22;56560;50.692;12.844;2023-02-24T09:12:46;5.50;86.70
69382;DHT22;56560;50.692;12.844;2023-02-24T09:15:13;5.60;85.70
69382;DHT22;56560;50.692;12.844;2023-02-24T09:17:42;5.60;86.50
69382;DHT22;56560;50.692;12.844;2023-02-24T09:20:23;5.70;87.00
69382;DHT22;56560;50.692;12.844;2023-02-24T09:22:56;5.80;83.60
69382;DHT22;56560;50.692;12.844;2023-02-24T09:25:28;5.60;84.50
69382;DHT22;56560;50.692;12.844;2023-02-24T09:28:13;5.50;85.10
69382;DHT22;56560;50.692;12.844;2023-02-24T09:31:03;5.60;84.30
69382;DHT22;56560;50.692;12.844;2023-02-24T09:33:37;5.50;84.70
69382;DHT22;56560;50.692;12.844;2023-02-24T09:36:14;5.70;84.40
69382;DHT22;56560;50.692;12.844;2023-02-24T09:39:06;5.70;83.90
69382;DHT22;56560;50.692;12.844;2023-02-24T09:44:11;5.70;84.40
69382;DHT22;56560;50.692;12.844;2023-02-24T09:46:48;5.90;84.50
69382;DHT22;56560;50.692;12.844;2023-02-24T09:49:23;6.00;83.80
69382;DHT22;56560;50.692;12.844;2023-02-24T09:51:49;6.10;83.60
69382;DHT22;56560;50.692;12.844;2023-02-24T09:54:28;6.50;83.40
69382;DHT22;56560;50.692;12.844;2023-02-24T09:57:09;6.70;81.30
69382;DHT22;56560;50.692;12.844;2023-02-24T09:59:56;6.50;81.60
69382;DHT22;56560;50.692;12.844;2023-02-24T10:02:54;6.30;82.50
69382;DHT22;56560;50.692;12.844;2023-02-24T10:05:33;6.20;81.20
69382;DHT22;56560;50.692;12.844;2023-02-24T10:08:07;6.10;81.60
69382;DHT22;56560;50.692;12.844;2023-02-24T10:10:38;6.10;82.40
69382;DHT22;56560;50.692;12.844;2023-02-24T10:13:23;6.20;81.50
69382;DHT22;56560;50.692;12.844;2023-02-24T10:15:57;6.40;81.30
69382;DHT22;56560;50.692;12.844;2023-02-24T10:24:19;6.70;80.20
69382;DHT22;56560;50.692;12.844;2023-02-24T10:27:30;6.90;79.50
69382;DHT22;56560;50.692;12.844;2023-02-24T10:30:09;6.80;79.20
69382;DHT22;56560;50.692;12.844;2023-02-24T10:32:54;6.80;79.60
69382;DHT22;56560;50.692;12.844;2023-02-24T10:35:25;7.00;79.40
69382;DHT22;56560;50.692;12.844;2023-02-24T10:38:01;7.00;78.10
69382;DHT22;56560;50.692;12.844;2023-02-24T10:40:41;6.90;78.30
69382;DHT22;56560;50.692;12.844;2023-02-24T10:43:16;6.80;78.80
69382;DHT22;56560;50.692;12.844;2023-02-24T10:45:44;6.60;80.50
69382;DHT22;56560;50.692;12.844;2023-02-24T10:48:21;6.50;80.70
69382;DHT22;56560;50.692;12.844;2023-02-24T10:50:53;6.30;81.80
69382;DHT22;56560;50.692;12.844;2023-02-24T10:53:33;6.10;82.10
69382;DHT22;56560;50.692;12.844;2023-02-24T10:56:04;6.00;82.30
69382;DHT22;56560;50.692;12.844;2023-02-24T10:59:14;5.90;83.30
69382;DHT22;56560;50.692;12.844;2023-02-24T11:02:01;6.00;82.80
69382;DHT22;56560;50.692;12.844;2023-02-24T11:04:36;6.00;81.90
69382;DHT22;56560;50.692;12.844;2023-02-24T11:07:29;6.00;83.40
69382;DHT22;56560;50.692;12.844;2023-02-24T11:10:17;6.10;85.10
69382;DHT22;56560;50.692;12.844;2023-02-24T11:12:54;6.30;83.70
69382;DHT22;56560;50.692;12.844;2023-02-24T11:15:48;6.20;82.40
69382;DHT22;56560;50.692;12.844;2023-02-24T11:18:34;6.10;83.00
69382;DHT22;56560;50.692;12.844;2023-02-24T11:23:43;5.90;81.80
69382;DHT22;56560;50.692;12.844;2023-02-24T11:26:42;5.80;81.10
69382;DHT22;56560;50.692;12.844;2023-02-24T11:32:34;6.20;81.80
69382;DHT22;56560;50.692;12.844;2023-02-24T11:35:16;6.20;81.40
69382;DHT22;56560;50.692;12.844;2023-02-24T11:41:23;6.60;79.50
69382;DHT22;56560;50.692;12.844;2023-02-24T11:44:12;7.00;77.20
69382;DHT22;56560;50.692;12.844;2023-02-24T11:46:45;7.40;77.50
69382;DHT22;56560;50.692;12.844;2023-02-24T11:51:59;7.90;75.00
69382;DHT22;56560;50.692;12.844;2023-02-24T11:54:26;8.60;74.50
69382;DHT22;56560;50.692;12.844;2023-02-24T11:56:57;9.30;72.50
69382;DHT22;56560;50.692;12.844;2023-02-24T11:59:32;9.60;69.50
69382;DHT22;56560;50.692;12.844;2023-02-24T12:02:26;9.90;70.30
69382;DHT22;56560;50.692;12.844;2023-02-24T12:05:03;10.50;68.20
69382;DHT22;56560;50.692;12.844;2023-02-24T12:07:38;10.90;66.90
69382;DHT22;56560;50.692;12.844;2023-02-24T12:10:18;11.20;67.00
69382;DHT22;56560;50.692;12.844;2023-02-24T12:15:59;11.00;63.10
69382;DHT22;56560;50.692;12.844;2023-02-24T12:18:34;10.10;66.40
69382;DHT22;56560;50.692;12.844;2023-02-24T12:21:20;10.00;67.40
69382;DHT22;56560;50.692;12.844;2023-02-24T12:23:50;9.80;66.70
69382;DHT22;56560;50.692;12.844;2023-02-24T12:32:08;8.70;71.00
69382;DHT22;56560;50.692;12.844;2023-02-24T12:35:04;8.20;72.20
69382;DHT22;56560;50.692;12.844;2023-02-24T12:37:57;8.00;74.10
69382;DHT22;56560;50.692;12.844;2023-02-24T12:46:02;8.00;75.50
69382;DHT22;56560;50.692;12.844;2023-02-24T12:51:33;8.10;75.20
69382;DHT22;56560;50.692;12.844;2023-02-24T12:54:22;8.20;74.50
69382;DHT22;56560;50.692;12.844;2023-02-24T12:57:02;8.50;74.40
69382;DHT22;56560;50.692;12.844;2023-02-24T12:59:35;8.50;72.40
69382;DHT22;56560;50.692;12.844;2023-02-24T13:16:01;7.30;76.60
69382;DHT22;56560;50.692;12.844;2023-02-24T13:18:35;7.20;77.30
69382;DHT22;56560;50.692;12.844;2023-02-24T13:23:55;7.10;76.90
69382;DHT22;56560;50.692;12.844;2023-02-24T13:26:23;7.20;77.50
69382;DHT22;56560;50.692;12.844;2023-02-24T13:29:02;7.40;77.70
69382;DHT22;56560;50.692;12.844;2023-02-24T13:31:41;7.60;75.70
69382;DHT22;56560;50.692;12.844;2023-02-24T13:34:29;7.50;77.50
69382;DHT22;56560;50.692;12.844;2023-02-24T13:36:56;7.50;77.10
69382;DHT22;56560;50.692;12.844;2023-02-24T13:39:33;7.50;76.20
69382;DHT22;56560;50.692;12.844;2023-02-24T13:42:19;7.80;76.50
69382;DHT22;56560;50.692;12.844;2023-02-24T13:44:52;7.90;75.70
69382;DHT22;56560;50.692;12.844;2023-02-24T13:50:23;7.90;75.40
69382;DHT22;56560;50.692;12.844;2023-02-24T14:01:31;8.40;73.50
69382;DHT22;56560;50.692;12.844;2023-02-24T14:04:19;8.50;74.00
69382;DHT22;56560;50.692;12.844;2023-02-24T14:06:50;8.60;72.20
69382;DHT22;56560;50.692;12.844;2023-02-24T14:09:21;8.60;73.60
69382;DHT22;56560;50.692;12.844;2023-02-24T14:11:51;8.70;72.90
69382;DHT22;56560;50.692;12.844;2023-02-24T14:14:18;8.80;72.40
69382;DHT22;56560;50.692;12.844;2023-02-24T14:16:45;8.90;71.50
69382;DHT22;56560;50.692;12.844;2023-02-24T14:19:14;8.80;72.10
69382;DHT22;56560;50.692;12.844;2023-02-24T14:21:53;8.80;72.30
69382;DHT22;56560;50.692;12.844;2023-02-24T14:24:19;8.70;71.60
69382;DHT22;56560;50.692;12.844;2023-02-24T14:26:55;8.60;72.10
69382;DHT22;56560;50.692;12.844;2023-02-24T14:29:28;8.50;70.50
69382;DHT22;56560;50.692;12.844;2023-02-24T14:31:57;8.40;70.50
69382;DHT22;56560;50.692;12.844;2023-02-24T14:34:25;8.30;71.00
69382;DHT22;56560;50.692;12.844;2023-02-24T14:36:54;8.10;72.20
69382;DHT22;56560;50.692;12.844;2023-02-24T14:39:23;8.00;69.70
69382;DHT22;56560;50.692;12.844;2023-02-24T14:41:51;7.90;70.60
69382;DHT22;56560;50.692;12.844;2023-02-24T14:44:28;7.80;71.40
69382;DHT22;56560;50.692;12.844;2023-02-24T14:47:00;7.80;71.30
69382;DHT22;56560;50.692;12.844;2023-02-24T14:49:32;7.70;71.00
69382;DHT22;56560;50.692;12.844;2023-02-24T14:54:50;7.60;71.90
69382;DHT22;56560;50.692;12.844;2023-02-24T14:57:23;7.50;70.00
69382;DHT22;56560;50.692;12.844;2023-02-24T14:59:57;7.40;70.30
69382;DHT22;56560;50.692;12.844;2023-02-24T15:02:30;7.20;70.20
69382;DHT22;56560;50.692;12.844;2023-02-24T15:04:57;7.10;70.90
69382;DHT22;56560;50.692;12.844;2023-02-24T15:07:27;7.10;71.10
69382;DHT22;56560;50.692;12.844;2023-02-24T15:09:54;7.00;72.20
69382;DHT22;56560;50.692;12.844;2023-02-24T15:12:35;7.10;70.50
69382;DHT22;56560;50.692;12.844;2023-02-24T15:15:05;7.00;71.50
69382;DHT22;56560;50.692;12.844;2023-02-24T15:17:32;7.00;71.70
69382;DHT22;56560;50.692;12.844;2023-02-24T15:20:02;6.90;71.70
69382;DHT22;56560;50.692;12.844;2023-02-24T15:22:33;7.00;71.00
69382;DHT22;56560;50.692;12.844;2023-02-24T15:25:22;6.90;71.60
69382;DHT22;56560;50.692;12.844;2023-02-24T15:27:55;6.80;71.80
69382;DHT22;56560;50.692;12.844;2023-02-24T15:30:28;6.80;71.90
69382;DHT22;56560;50.692;12.844;2023-02-24T15:33:10;6.70;71.20
69382;DHT22;56560;50.692;12.844;2023-02-24T15:35:38;6.60;70.90
69382;DHT22;56560;50.692;12.844;2023-02-24T15:38:19;6.50;71.50
69382;DHT22;56560;50.692;12.844;2023-02-24T15:40:56;6.50;72.60
69382;DHT22;56560;50.692;12.844;2023-02-24T15:43:47;6.50;72.80
69382;DHT22;56560;50.692;12.844;2023-02-24T15:48:45;6.50;72.00
69382;DHT22;56560;50.692;12.844;2023-02-24T15:51:40;6.40;71.10
69382;DHT22;56560;50.692;12.844;2023-02-24T15:54:26;6.40;72.60
69382;DHT22;56560;50.692;12.844;2023-02-24T15:56:59;6.30;73.20
69382;DHT22;56560;50.692;12.844;2023-02-24T15:59:25;6.30;74.30
69382;DHT22;56560;50.692;12.844;2023-02-24T16:01:51;6.30;74.00
69382;DHT22;56560;50.692;12.844;2023-02-24T16:04:17;6.30;73.60
69382;DHT22;56560;50.692;12.844;2023-02-24T16:06:46;6.30;74.30
69382;DHT22;56560;50.692;12.844;2023-02-24T16:09:23;6.30;74.80
69382;DHT22;56560;50.692;12.844;2023-02-24T16:11:50;6.30;74.50
69382;DHT22;56560;50.692;12.844;2023-02-24T16:14:17;6.30;75.40
69382;DHT22;56560;50.692;12.844;2023-02-24T16:16:43;6.30;74.90
69382;DHT22;56560;50.692;12.844;2023-02-24T16:19:13;6.20;74.00
69382;DHT22;56560;50.692;12.844;2023-02-24T16:21:39;6.00;72.20
69382;DHT22;56560;50.692;12.844;2023-02-24T16:24:05;5.70;73.60
69382;DHT22;56560;50.692;12.844;2023-02-24T16:26:34;5.50;74.00
69382;DHT22;56560;50.692;12.844;2023-02-24T16:29:00;5.20;75.90
69382;DHT22;56560;50.692;12.844;2023-02-24T16:31:26;5.10;76.30
69382;DHT22;56560;50.692;12.844;2023-02-24T16:33:52;4.90;78.40
69382;DHT22;56560;50.692;12.844;2023-02-24T16:36:18;4.80;78.50
69382;DHT22;56560;50.692;12.844;2023-02-24T16:38:44;4.70;78.80
69382;DHT22;56560;50.692;12.844;2023-02-24T16:41:13;4.60;79.70
69382;DHT22;56560;50.692;12.844;2023-02-24T16:43:39;4.50;80.40
69382;DHT22;56560;50.692;12.844;2023-02-24T16:46:06;4.40;80.90
69382;DHT22;56560;50.692;12.844;2023-02-24T16:48:37;4.40;81.50
69382;DHT22;56560;50.692;12.844;2023-02-24T16:51:05;4.30;82.30
69382;DHT22;56560;50.692;12.844;2023-02-24T16:53:32;4.30;82.40
69382;DHT22;56560;50.692;12.844;2023-02-24T16:55:58;4.20;83.30
69382;DHT22;56560;50.692;12.844;2023-02-24T16:58:24;4.30;82.50
69382;DHT22;56560;50.692;12.844;2023-02-24T17:00:52;4.20;82.70
69382;DHT22;56560;50.692;12.844;2023-02-24T17:03:30;4.20;83.90
69382;DHT22;56560;50.692;12.844;2023-02-24T17:05:57;4.20;84.20
69382;DHT22;56560;50.692;12.844;2023-02-24T17:08:23;4.00;84.40
69382;DHT22;56560;50.692;12.844;2023-02-24T17:10:50;4.00;85.40
69382;DHT22;56560;50.692;12.844;2023-02-24T17:13:19;4.00;85.70
69382;DHT22;56560;50.692;12.844;2023-02-24T17:15:45;4.00;84.60
69382;DHT22;56560;50.692;12.844;2023-02-24T17:18:11;3.90;85.20
69382;DHT22;56560;50.692;12.844;2023-02-24T17:20:39;3.80;86.00
69382;DHT22;56560;50.692;12.844;2023-02-24T17:23:05;3.80;86.00
69382;DHT22;56560;50.692;12.844;2023-02-24T17:25:32;3.70;86.20
69382;DHT22;56560;50.692;12.844;2023-02-24T17:27:58;3.70;86.20
69382;DHT22;56560;50.692;12.844;2023-02-24T17:30:26;3.60;86.10
69382;DHT22;56560;50.692;12.844;2023-02-24T17:32:52;3.50;86.80
69382;DHT22;56560;50.692;12.844;2023-02-24T17:35:18;3.50;86.80
69382;DHT22;56560;50.692;12.844;2023-02-24T17:37:44;3.50;87.10
69382;DHT22;56560;50.692;12.844;2023-02-24T17:40:10;3.50;87.70
69382;DHT22;56560;50.692;12.844;2023-02-24T17:42:36;3.60;87.80
69382;DHT22;56560;50.692;12.844;2023-02-24T17:45:03;3.50;87.40
69382;DHT22;56560;50.692;12.844;2023-02-24T17:47:29;3.50;87.10
69382;DHT22;56560;50.692;12.844;2023-02-24T17:49:55;3.50;87.40
69382;DHT22;56560;50.692;12.844;2023-02-24T17:52:21;3.40;87.00
69382;DHT22;56560;50.692;12.844;2023-02-24T17:54:48;3.40;87.80
69382;DHT22;56560;50.692;12.844;2023-02-24T17:57:13;3.40;86.80